sensor_id;sensor_type;location;lat;lon;timestamp;P1;durP1;ratioP1;P2;durP2;ratioP2
40252;SDS011;25972;51.854;4.534;2022-08-20T00:01:50;5.47;;;2.42;;
40252;SDS011;25972;51.854;4.534;2022-08-20T00:04:16;8.05;;;2.53;;
40252;SDS011;25972;51.854;4.534;2022-08-20T00:06:42;4.57;;;2.20;;
40252;SDS011;25972;51.854;4.534;2022-08-20T00:09:09;6.97;;;2.38;;
40252;SDS011;25972;51.854;4.534;2022-08-20T00:11:35;4.97;;;2.22;;
40252;SDS011;25972;51.854;4.534;2022-08-20T00:14:02;7.30;;;2.58;;
40252;SDS011;25972;51.854;4.534;2022-08-20T00:16:32;8.40;;;2.83;;
40252;SDS011;25972;51.854;4.534;2022-08-20T00:19:01;7.47;;;2.83;;
40252;SDS011;25972;51.854;4.534;2022-08-20T00:21:29;6.72;;;2.40;;
40252;SDS011;25972;51.854;4.534;2022-08-20T00:23:55;10.27;;;2.55;;
40252;SDS011;25972;51.854;4.534;2022-08-20T00:26:22;6.43;;;2.53;;
40252;SDS011;25972;51.854;4.534;2022-08-20T00:28:49;6.68;;;2.88;;
40252;SDS011;25972;51.854;4.534;2022-08-20T00:31:16;3.97;;;2.42;;
40252;SDS011;25972;51.854;4.534;2022-08-20T00:33:44;6.97;;;2.70;;
40252;SDS011;25972;51.854;4.534;2022-08-20T00:36:10;7.63;;;2.95;;
40252;SDS011;25972;51.854;4.534;2022-08-20T00:38:37;9.68;;;2.97;;
40252;SDS011;25972;51.854;4.534;2022-08-20T00:41:04;4.95;;;2.70;;
40252;SDS011;25972;51.854;4.534;2022-08-20T00:46:19;9.20;;;3.00;;
40252;SDS011;25972;51.854;4.534;2022-08-20T00:48:50;7.43;;;3.15;;
40252;SDS011;25972;51.854;4.534;2022-08-20T00:51:24;11.20;;;3.15;;
40252;SDS011;25972;51.854;4.534;2022-08-20T00:54:20;7.53;;;3.05;;
40252;SDS011;25972;51.854;4.534;2022-08-20T00:56:51;5.95;;;2.72;;
40252;SDS011;25972;51.854;4.534;2022-08-20T00:59:25;9.85;;;2.90;;
40252;SDS011;25972;51.854;4.534;2022-08-20T01:01:54;9.45;;;3.00;;
40252;SDS011;25972;51.854;4.534;2022-08-20T01:04:22;7.97;;;2.90;;
40252;SDS011;25972;51.854;4.534;2022-08-20T01:06:49;7.78;;;2.88;;
40252;SDS011;25972;51.854;4.534;2022-08-20T01:09:15;8.98;;;3.92;;
40252;SDS011;25972;51.854;4.534;2022-08-20T01:11:40;8.00;;;3.53;;
40252;SDS011;25972;51.854;4.534;2022-08-20T01:14:08;10.88;;;4.32;;
40252;SDS011;25972;51.854;4.534;2022-08-20T01:16:58;10.43;;;3.80;;
40252;SDS011;25972;51.854;4.534;2022-08-20T01:22:37;10.10;;;4.63;;
40252;SDS011;25972;51.854;4.534;2022-08-20T01:25:37;12.07;;;4.90;;
40252;SDS011;25972;51.854;4.534;2022-08-20T01:28:13;13.77;;;5.65;;
40252;SDS011;25972;51.854;4.534;2022-08-20T01:30:41;10.45;;;5.93;;
40252;SDS011;25972;51.854;4.534;2022-08-20T01:33:07;12.32;;;6.13;;
40252;SDS011;25972;51.854;4.534;2022-08-20T01:35:34;10.95;;;6.90;;
40252;SDS011;25972;51.854;4.534;2022-08-20T01:38:03;12.52;;;6.55;;
40252;SDS011;25972;51.854;4.534;2022-08-20T01:40:43;14.90;;;6.55;;
40252;SDS011;25972;51.854;4.534;2022-08-20T01:43:27;12.00;;;5.75;;
40252;SDS011;25972;51.854;4.534;2022-08-20T01:45:53;13.43;;;5.55;;
40252;SDS011;25972;51.854;4.534;2022-08-20T01:48:19;10.75;;;5.28;;
40252;SDS011;25972;51.854;4.534;2022-08-20T01:50:49;15.30;;;4.80;;
40252;SDS011;25972;51.854;4.534;2022-08-20T01:53:21;10.65;;;4.90;;
40252;SDS011;25972;51.854;4.534;2022-08-20T01:55:52;14.15;;;5.20;;
40252;SDS011;25972;51.854;4.534;2022-08-20T01:58:18;10.75;;;4.38;;
40252;SDS011;25972;51.854;4.534;2022-08-20T02:00:44;12.15;;;4.72;;
40252;SDS011;25972;51.854;4.534;2022-08-20T02:03:10;8.73;;;3.65;;
40252;SDS011;25972;51.854;4.534;2022-08-20T02:05:36;8.45;;;3.38;;
40252;SDS011;25972;51.854;4.534;2022-08-20T02:08:02;9.98;;;3.67;;
40252;SDS011;25972;51.854;4.534;2022-08-20T02:10:28;10.00;;;3.70;;
40252;SDS011;25972;51.854;4.534;2022-08-20T02:12:59;8.88;;;3.72;;
40252;SDS011;25972;51.854;4.534;2022-08-20T02:15:25;12.15;;;4.00;;
40252;SDS011;25972;51.854;4.534;2022-08-20T02:17:51;8.52;;;3.50;;
40252;SDS011;25972;51.854;4.534;2022-08-20T02:20:18;7.88;;;3.63;;
40252;SDS011;25972;51.854;4.534;2022-08-20T02:22:53;7.32;;;3.63;;
40252;SDS011;25972;51.854;4.534;2022-08-20T02:25:21;7.97;;;3.60;;
40252;SDS011;25972;51.854;4.534;2022-08-20T02:27:50;8.40;;;3.33;;
40252;SDS011;25972;51.854;4.534;2022-08-20T02:30:19;9.63;;;3.78;;
40252;SDS011;25972;51.854;4.534;2022-08-20T02:32:47;9.73;;;3.80;;
40252;SDS011;25972;51.854;4.534;2022-08-20T02:35:14;10.32;;;3.80;;
40252;SDS011;25972;51.854;4.534;2022-08-20T02:37:41;8.75;;;3.42;;
40252;SDS011;25972;51.854;4.534;2022-08-20T02:40:09;8.10;;;3.28;;
40252;SDS011;25972;51.854;4.534;2022-08-20T02:42:38;8.18;;;3.17;;
40252;SDS011;25972;51.854;4.534;2022-08-20T02:45:07;10.38;;;3.53;;
40252;SDS011;25972;51.854;4.534;2022-08-20T02:47:42;6.22;;;3.47;;
40252;SDS011;25972;51.854;4.534;2022-08-20T02:50:10;12.23;;;3.92;;
40252;SDS011;25972;51.854;4.534;2022-08-20T02:52:38;6.82;;;3.28;;
40252;SDS011;25972;51.854;4.534;2022-08-20T02:55:04;6.60;;;3.20;;
40252;SDS011;25972;51.854;4.534;2022-08-20T02:57:31;9.45;;;3.25;;
40252;SDS011;25972;51.854;4.534;2022-08-20T02:59:57;8.00;;;3.20;;
40252;SDS011;25972;51.854;4.534;2022-08-20T03:02:23;9.77;;;3.80;;
40252;SDS011;25972;51.854;4.534;2022-08-20T03:04:49;8.43;;;3.13;;
40252;SDS011;25972;51.854;4.534;2022-08-20T03:07:15;10.63;;;2.92;;
40252;SDS011;25972;51.854;4.534;2022-08-20T03:09:41;8.80;;;4.10;;
40252;SDS011;25972;51.854;4.534;2022-08-20T03:12:07;7.97;;;3.05;;
40252;SDS011;25972;51.854;4.534;2022-08-20T03:14:33;7.05;;;3.55;;
40252;SDS011;25972;51.854;4.534;2022-08-20T03:17:00;6.85;;;2.97;;
40252;SDS011;25972;51.854;4.534;2022-08-20T03:19:26;14.45;;;3.38;;
40252;SDS011;25972;51.854;4.534;2022-08-20T03:21:52;7.85;;;3.28;;
40252;SDS011;25972;51.854;4.534;2022-08-20T03:24:18;6.60;;;2.85;;
40252;SDS011;25972;51.854;4.534;2022-08-20T03:26:44;7.55;;;3.05;;
40252;SDS011;25972;51.854;4.534;2022-08-20T03:29:10;11.35;;;3.55;;
40252;SDS011;25972;51.854;4.534;2022-08-20T03:31:36;10.65;;;3.20;;
40252;SDS011;25972;51.854;4.534;2022-08-20T03:34:02;10.40;;;3.35;;
40252;SDS011;25972;51.854;4.534;2022-08-20T03:36:28;9.25;;;3.15;;
40252;SDS011;25972;51.854;4.534;2022-08-20T03:38:59;7.57;;;2.72;;
40252;SDS011;25972;51.854;4.534;2022-08-20T03:41:27;8.95;;;3.28;;
40252;SDS011;25972;51.854;4.534;2022-08-20T03:43:53;8.65;;;2.90;;
40252;SDS011;25972;51.854;4.534;2022-08-20T03:46:19;6.85;;;2.95;;
40252;SDS011;25972;51.854;4.534;2022-08-20T03:48:45;9.63;;;3.05;;
40252;SDS011;25972;51.854;4.534;2022-08-20T03:51:11;10.57;;;3.20;;
40252;SDS011;25972;51.854;4.534;2022-08-20T03:53:37;10.18;;;3.30;;
40252;SDS011;25972;51.854;4.534;2022-08-20T03:56:03;11.23;;;3.38;;
40252;SDS011;25972;51.854;4.534;2022-08-20T03:58:30;8.52;;;3.08;;
40252;SDS011;25972;51.854;4.534;2022-08-20T04:00:57;9.10;;;3.22;;
40252;SDS011;25972;51.854;4.534;2022-08-20T04:03:23;7.38;;;3.55;;
40252;SDS011;25972;51.854;4.534;2022-08-20T04:05:50;7.45;;;2.80;;
40252;SDS011;25972;51.854;4.534;2022-08-20T04:08:21;8.88;;;3.20;;
40252;SDS011;25972;51.854;4.534;2022-08-20T04:10:50;7.55;;;2.90;;
40252;SDS011;25972;51.854;4.534;2022-08-20T04:13:17;10.10;;;3.17;;
40252;SDS011;25972;51.854;4.534;2022-08-20T04:15:45;9.25;;;3.05;;
40252;SDS011;25972;51.854;4.534;2022-08-20T04:18:12;6.45;;;3.33;;
40252;SDS011;25972;51.854;4.534;2022-08-20T04:20:40;7.68;;;3.03;;
40252;SDS011;25972;51.854;4.534;2022-08-20T04:23:07;5.32;;;3.08;;
40252;SDS011;25972;51.854;4.534;2022-08-20T04:25:34;8.90;;;3.22;;
40252;SDS011;25972;51.854;4.534;2022-08-20T04:28:06;7.72;;;3.50;;
40252;SDS011;25972;51.854;4.534;2022-08-20T04:30:34;7.57;;;3.45;;
40252;SDS011;25972;51.854;4.534;2022-08-20T04:33:00;7.95;;;3.22;;
40252;SDS011;25972;51.854;4.534;2022-08-20T04:35:26;7.63;;;3.00;;
40252;SDS011;25972;51.854;4.534;2022-08-20T04:37:58;11.40;;;3.40;;
40252;SDS011;25972;51.854;4.534;2022-08-20T04:40:25;9.68;;;3.38;;
40252;SDS011;25972;51.854;4.534;2022-08-20T04:43:10;9.57;;;3.47;;
40252;SDS011;25972;51.854;4.534;2022-08-20T04:45:36;11.70;;;3.40;;
40252;SDS011;25972;51.854;4.534;2022-08-20T04:48:03;10.68;;;3.22;;
40252;SDS011;25972;51.854;4.534;2022-08-20T04:50:34;8.82;;;3.05;;
40252;SDS011;25972;51.854;4.534;2022-08-20T04:53:02;6.47;;;3.30;;
40252;SDS011;25972;51.854;4.534;2022-08-20T04:55:29;13.45;;;3.92;;
40252;SDS011;25972;51.854;4.534;2022-08-20T04:58:01;10.55;;;3.58;;
40252;SDS011;25972;51.854;4.534;2022-08-20T05:00:31;8.77;;;3.53;;
40252;SDS011;25972;51.854;4.534;2022-08-20T05:02:58;7.82;;;3.50;;
40252;SDS011;25972;51.854;4.534;2022-08-20T05:05:24;8.45;;;3.45;;
40252;SDS011;25972;51.854;4.534;2022-08-20T05:07:51;9.95;;;3.53;;
40252;SDS011;25972;51.854;4.534;2022-08-20T05:10:18;8.63;;;3.83;;
40252;SDS011;25972;51.854;4.534;2022-08-20T05:12:44;12.02;;;4.03;;
40252;SDS011;25972;51.854;4.534;2022-08-20T05:15:10;12.13;;;4.28;;
40252;SDS011;25972;51.854;4.534;2022-08-20T05:17:38;10.77;;;4.07;;
40252;SDS011;25972;51.854;4.534;2022-08-20T05:20:05;12.52;;;4.85;;
40252;SDS011;25972;51.854;4.534;2022-08-20T05:22:33;9.93;;;4.35;;
40252;SDS011;25972;51.854;4.534;2022-08-20T05:24:58;9.63;;;4.03;;
40252;SDS011;25972;51.854;4.534;2022-08-20T05:27:27;10.32;;;4.40;;
40252;SDS011;25972;51.854;4.534;2022-08-20T05:29:58;14.35;;;6.05;;
40252;SDS011;25972;51.854;4.534;2022-08-20T05:32:26;10.48;;;4.55;;
40252;SDS011;25972;51.854;4.534;2022-08-20T05:34:52;10.05;;;4.53;;
40252;SDS011;25972;51.854;4.534;2022-08-20T05:37:19;8.07;;;4.38;;
40252;SDS011;25972;51.854;4.534;2022-08-20T05:39:44;9.77;;;4.45;;
40252;SDS011;25972;51.854;4.534;2022-08-20T05:42:10;12.80;;;4.32;;
40252;SDS011;25972;51.854;4.534;2022-08-20T05:44:36;10.68;;;4.97;;
40252;SDS011;25972;51.854;4.534;2022-08-20T05:47:04;10.60;;;5.30;;
40252;SDS011;25972;51.854;4.534;2022-08-20T05:49:30;11.70;;;5.10;;
40252;SDS011;25972;51.854;4.534;2022-08-20T05:51:56;13.98;;;4.60;;
40252;SDS011;25972;51.854;4.534;2022-08-20T05:54:23;13.13;;;5.18;;
40252;SDS011;25972;51.854;4.534;2022-08-20T05:56:49;11.43;;;5.10;;
40252;SDS011;25972;51.854;4.534;2022-08-20T05:59:15;13.93;;;5.45;;
40252;SDS011;25972;51.854;4.534;2022-08-20T06:01:42;14.80;;;5.10;;
40252;SDS011;25972;51.854;4.534;2022-08-20T06:04:08;14.23;;;4.72;;
40252;SDS011;25972;51.854;4.534;2022-08-20T06:06:56;11.93;;;4.95;;
40252;SDS011;25972;51.854;4.534;2022-08-20T06:09:30;10.82;;;4.03;;
40252;SDS011;25972;51.854;4.534;2022-08-20T06:11:57;14.18;;;4.93;;
40252;SDS011;25972;51.854;4.534;2022-08-20T06:14:27;14.20;;;4.57;;
40252;SDS011;25972;51.854;4.534;2022-08-20T06:16:53;14.98;;;5.45;;
40252;SDS011;25972;51.854;4.534;2022-08-20T06:19:19;12.68;;;5.80;;
40252;SDS011;25972;51.854;4.534;2022-08-20T06:21:44;14.52;;;5.75;;
40252;SDS011;25972;51.854;4.534;2022-08-20T06:24:10;13.27;;;5.68;;
40252;SDS011;25972;51.854;4.534;2022-08-20T06:26:36;18.17;;;5.35;;
40252;SDS011;25972;51.854;4.534;2022-08-20T06:29:02;12.40;;;4.80;;
40252;SDS011;25972;51.854;4.534;2022-08-20T06:31:29;10.57;;;4.22;;
40252;SDS011;25972;51.854;4.534;2022-08-20T06:33:55;14.30;;;4.65;;
40252;SDS011;25972;51.854;4.534;2022-08-20T06:36:21;13.07;;;4.40;;
40252;SDS011;25972;51.854;4.534;2022-08-20T06:38:47;15.52;;;4.60;;
40252;SDS011;25972;51.854;4.534;2022-08-20T06:41:13;10.50;;;3.72;;
40252;SDS011;25972;51.854;4.534;2022-08-20T06:43:42;11.13;;;3.95;;
40252;SDS011;25972;51.854;4.534;2022-08-20T06:46:07;12.38;;;3.63;;
40252;SDS011;25972;51.854;4.534;2022-08-20T06:48:33;13.82;;;3.53;;
40252;SDS011;25972;51.854;4.534;2022-08-20T06:50:59;13.18;;;3.30;;
40252;SDS011;25972;51.854;4.534;2022-08-20T06:53:25;13.50;;;3.42;;
40252;SDS011;25972;51.854;4.534;2022-08-20T06:55:52;12.27;;;3.10;;
40252;SDS011;25972;51.854;4.534;2022-08-20T06:58:19;12.23;;;2.85;;
40252;SDS011;25972;51.854;4.534;2022-08-20T07:00:46;7.68;;;2.90;;
40252;SDS011;25972;51.854;4.534;2022-08-20T07:03:13;8.85;;;2.65;;
40252;SDS011;25972;51.854;4.534;2022-08-20T07:05:40;12.77;;;2.53;;
40252;SDS011;25972;51.854;4.534;2022-08-20T07:08:12;11.90;;;3.22;;
40252;SDS011;25972;51.854;4.534;2022-08-20T07:10:39;9.82;;;2.60;;
40252;SDS011;25972;51.854;4.534;2022-08-20T07:13:07;11.88;;;2.90;;
40252;SDS011;25972;51.854;4.534;2022-08-20T07:15:36;14.48;;;3.10;;
40252;SDS011;25972;51.854;4.534;2022-08-20T07:18:03;10.43;;;2.08;;
40252;SDS011;25972;51.854;4.534;2022-08-20T07:20:31;12.93;;;2.33;;
40252;SDS011;25972;51.854;4.534;2022-08-20T07:22:58;6.13;;;2.00;;
40252;SDS011;25972;51.854;4.534;2022-08-20T07:25:25;10.57;;;2.38;;
40252;SDS011;25972;51.854;4.534;2022-08-20T07:27:50;8.73;;;1.90;;
40252;SDS011;25972;51.854;4.534;2022-08-20T07:30:24;7.03;;;2.13;;
40252;SDS011;25972;51.854;4.534;2022-08-20T07:33:09;9.05;;;2.10;;
40252;SDS011;25972;51.854;4.534;2022-08-20T07:35:38;13.75;;;2.80;;
40252;SDS011;25972;51.854;4.534;2022-08-20T07:38:05;8.25;;;1.98;;
40252;SDS011;25972;51.854;4.534;2022-08-20T07:40:33;11.13;;;1.98;;
40252;SDS011;25972;51.854;4.534;2022-08-20T07:43:00;9.32;;;2.33;;
40252;SDS011;25972;51.854;4.534;2022-08-20T07:45:27;10.05;;;2.28;;
40252;SDS011;25972;51.854;4.534;2022-08-20T07:47:54;9.07;;;2.42;;
40252;SDS011;25972;51.854;4.534;2022-08-20T07:50:33;11.77;;;2.42;;
40252;SDS011;25972;51.854;4.534;2022-08-20T07:52:59;8.90;;;2.35;;
40252;SDS011;25972;51.854;4.534;2022-08-20T07:55:25;10.82;;;2.08;;
40252;SDS011;25972;51.854;4.534;2022-08-20T07:57:51;12.07;;;2.15;;
40252;SDS011;25972;51.854;4.534;2022-08-20T08:00:18;8.20;;;2.20;;
40252;SDS011;25972;51.854;4.534;2022-08-20T08:02:45;7.75;;;2.40;;
40252;SDS011;25972;51.854;4.534;2022-08-20T08:05:11;10.65;;;2.28;;
40252;SDS011;25972;51.854;4.534;2022-08-20T08:07:37;7.68;;;1.90;;
40252;SDS011;25972;51.854;4.534;2022-08-20T08:10:05;8.10;;;1.92;;
40252;SDS011;25972;51.854;4.534;2022-08-20T08:12:37;9.02;;;2.00;;
40252;SDS011;25972;51.854;4.534;2022-08-20T08:15:07;8.05;;;2.00;;
40252;SDS011;25972;51.854;4.534;2022-08-20T08:17:36;7.30;;;1.95;;
40252;SDS011;25972;51.854;4.534;2022-08-20T08:20:04;7.38;;;1.80;;
40252;SDS011;25972;51.854;4.534;2022-08-20T08:22:31;10.82;;;2.60;;
40252;SDS011;25972;51.854;4.534;2022-08-20T08:24:57;6.53;;;2.00;;
40252;SDS011;25972;51.854;4.534;2022-08-20T08:27:29;9.77;;;2.10;;
40252;SDS011;25972;51.854;4.534;2022-08-20T08:29:57;9.60;;;1.95;;
40252;SDS011;25972;51.854;4.534;2022-08-20T08:32:24;12.10;;;1.98;;
40252;SDS011;25972;51.854;4.534;2022-08-20T08:34:51;9.05;;;1.77;;
40252;SDS011;25972;51.854;4.534;2022-08-20T08:37:16;9.30;;;1.92;;
40252;SDS011;25972;51.854;4.534;2022-08-20T08:39:42;7.28;;;1.90;;
40252;SDS011;25972;51.854;4.534;2022-08-20T08:44:58;10.43;;;1.75;;
40252;SDS011;25972;51.854;4.534;2022-08-20T08:47:29;8.30;;;1.73;;
40252;SDS011;25972;51.854;4.534;2022-08-20T08:49:59;8.52;;;1.77;;
40252;SDS011;25972;51.854;4.534;2022-08-20T08:52:27;8.88;;;2.05;;
40252;SDS011;25972;51.854;4.534;2022-08-20T08:54:57;7.50;;;1.77;;
40252;SDS011;25972;51.854;4.534;2022-08-20T08:57:25;9.50;;;1.70;;
40252;SDS011;25972;51.854;4.534;2022-08-20T08:59:58;7.75;;;1.90;;
40252;SDS011;25972;51.854;4.534;2022-08-20T09:02:26;7.70;;;1.83;;
40252;SDS011;25972;51.854;4.534;2022-08-20T09:04:54;7.57;;;1.70;;
40252;SDS011;25972;51.854;4.534;2022-08-20T09:07:21;10.23;;;1.70;;
40252;SDS011;25972;51.854;4.534;2022-08-20T09:09:50;9.73;;;2.00;;
40252;SDS011;25972;51.854;4.534;2022-08-20T09:12:17;7.38;;;1.95;;
40252;SDS011;25972;51.854;4.534;2022-08-20T09:14:45;9.00;;;1.70;;
40252;SDS011;25972;51.854;4.534;2022-08-20T09:17:16;6.63;;;1.60;;
40252;SDS011;25972;51.854;4.534;2022-08-20T09:19:44;10.90;;;1.88;;
40252;SDS011;25972;51.854;4.534;2022-08-20T09:22:11;6.40;;;1.83;;
40252;SDS011;25972;51.854;4.534;2022-08-20T09:24:39;9.52;;;2.20;;
40252;SDS011;25972;51.854;4.534;2022-08-20T09:27:06;9.60;;;1.98;;
40252;SDS011;25972;51.854;4.534;2022-08-20T09:29:32;13.05;;;2.33;;
40252;SDS011;25972;51.854;4.534;2022-08-20T09:32:03;6.10;;;1.60;;
40252;SDS011;25972;51.854;4.534;2022-08-20T09:34:33;5.73;;;1.37;;
40252;SDS011;25972;51.854;4.534;2022-08-20T09:37:00;8.98;;;1.73;;
40252;SDS011;25972;51.854;4.534;2022-08-20T09:39:25;7.65;;;1.52;;
40252;SDS011;25972;51.854;4.534;2022-08-20T09:41:51;7.78;;;1.73;;
40252;SDS011;25972;51.854;4.534;2022-08-20T09:44:17;6.60;;;1.50;;
40252;SDS011;25972;51.854;4.534;2022-08-20T09:46:42;4.32;;;1.52;;
40252;SDS011;25972;51.854;4.534;2022-08-20T09:49:08;5.25;;;2.08;;
40252;SDS011;25972;51.854;4.534;2022-08-20T09:51:34;7.38;;;2.20;;
40252;SDS011;25972;51.854;4.534;2022-08-20T09:54:00;11.43;;;2.47;;
40252;SDS011;25972;51.854;4.534;2022-08-20T09:56:26;6.35;;;1.58;;
40252;SDS011;25972;51.854;4.534;2022-08-20T09:58:57;7.80;;;1.70;;
40252;SDS011;25972;51.854;4.534;2022-08-20T10:01:23;7.93;;;1.70;;
40252;SDS011;25972;51.854;4.534;2022-08-20T10:03:49;10.10;;;2.00;;
40252;SDS011;25972;51.854;4.534;2022-08-20T10:06:15;7.55;;;1.50;;
40252;SDS011;25972;51.854;4.534;2022-08-20T10:08:43;6.40;;;1.90;;
40252;SDS011;25972;51.854;4.534;2022-08-20T10:11:09;4.20;;;1.25;;
40252;SDS011;25972;51.854;4.534;2022-08-20T10:13:35;6.05;;;1.38;;
40252;SDS011;25972;51.854;4.534;2022-08-20T10:16:01;8.07;;;1.73;;
40252;SDS011;25972;51.854;4.534;2022-08-20T10:18:27;5.28;;;1.50;;
40252;SDS011;25972;51.854;4.534;2022-08-20T10:20:53;8.38;;;1.60;;
40252;SDS011;25972;51.854;4.534;2022-08-20T10:23:18;5.72;;;1.73;;
40252;SDS011;25972;51.854;4.534;2022-08-20T10:25:44;11.02;;;2.00;;
40252;SDS011;25972;51.854;4.534;2022-08-20T10:28:10;8.43;;;1.70;;
40252;SDS011;25972;51.854;4.534;2022-08-20T10:30:36;6.03;;;1.35;;
40252;SDS011;25972;51.854;4.534;2022-08-20T10:33:02;8.48;;;1.77;;
40252;SDS011;25972;51.854;4.534;2022-08-20T10:35:28;6.10;;;1.77;;
40252;SDS011;25972;51.854;4.534;2022-08-20T10:37:54;6.00;;;1.60;;
40252;SDS011;25972;51.854;4.534;2022-08-20T10:40:20;7.82;;;1.80;;
40252;SDS011;25972;51.854;4.534;2022-08-20T10:42:46;7.43;;;1.65;;
40252;SDS011;25972;51.854;4.534;2022-08-20T10:45:12;8.88;;;2.05;;
40252;SDS011;25972;51.854;4.534;2022-08-20T10:47:40;9.82;;;1.83;;
40252;SDS011;25972;51.854;4.534;2022-08-20T10:50:07;7.43;;;1.75;;
40252;SDS011;25972;51.854;4.534;2022-08-20T10:52:35;8.25;;;2.10;;
40252;SDS011;25972;51.854;4.534;2022-08-20T10:55:01;5.28;;;1.45;;
40252;SDS011;25972;51.854;4.534;2022-08-20T10:57:28;10.38;;;1.77;;
40252;SDS011;25972;51.854;4.534;2022-08-20T10:59:56;7.47;;;2.03;;
40252;SDS011;25972;51.854;4.534;2022-08-20T11:02:23;5.60;;;1.98;;
40252;SDS011;25972;51.854;4.534;2022-08-20T11:04:49;9.90;;;3.08;;
40252;SDS011;25972;51.854;4.534;2022-08-20T11:07:17;10.07;;;2.05;;
40252;SDS011;25972;51.854;4.534;2022-08-20T11:09:51;7.32;;;1.50;;
40252;SDS011;25972;51.854;4.534;2022-08-20T11:12:18;6.68;;;1.60;;
40252;SDS011;25972;51.854;4.534;2022-08-20T11:14:46;9.30;;;2.15;;
40252;SDS011;25972;51.854;4.534;2022-08-20T11:17:12;7.88;;;1.77;;
40252;SDS011;25972;51.854;4.534;2022-08-20T11:19:44;5.63;;;1.60;;
40252;SDS011;25972;51.854;4.534;2022-08-20T11:22:10;9.05;;;2.00;;
40252;SDS011;25972;51.854;4.534;2022-08-20T11:24:36;9.15;;;2.00;;
40252;SDS011;25972;51.854;4.534;2022-08-20T11:27:03;6.35;;;1.60;;
40252;SDS011;25972;51.854;4.534;2022-08-20T11:29:31;5.13;;;1.25;;
40252;SDS011;25972;51.854;4.534;2022-08-20T11:31:58;6.43;;;2.00;;
40252;SDS011;25972;51.854;4.534;2022-08-20T11:34:23;8.38;;;1.70;;
40252;SDS011;25972;51.854;4.534;2022-08-20T11:36:49;7.32;;;2.00;;
40252;SDS011;25972;51.854;4.534;2022-08-20T11:39:17;5.55;;;1.90;;
40252;SDS011;25972;51.854;4.534;2022-08-20T11:41:43;7.90;;;1.90;;
40252;SDS011;25972;51.854;4.534;2022-08-20T11:44:08;8.55;;;1.75;;
40252;SDS011;25972;51.854;4.534;2022-08-20T11:46:35;7.45;;;1.70;;
40252;SDS011;25972;51.854;4.534;2022-08-20T11:49:01;9.85;;;1.90;;
40252;SDS011;25972;51.854;4.534;2022-08-20T11:51:27;11.82;;;2.03;;
40252;SDS011;25972;51.854;4.534;2022-08-20T11:53:53;9.85;;;1.83;;
40252;SDS011;25972;51.854;4.534;2022-08-20T11:56:19;4.75;;;1.60;;
40252;SDS011;25972;51.854;4.534;2022-08-20T11:58:45;8.32;;;2.00;;
40252;SDS011;25972;51.854;4.534;2022-08-20T12:01:11;9.05;;;1.90;;
40252;SDS011;25972;51.854;4.534;2022-08-20T12:03:38;8.48;;;1.98;;
40252;SDS011;25972;51.854;4.534;2022-08-20T12:06:04;6.18;;;2.10;;
40252;SDS011;25972;51.854;4.534;2022-08-20T12:08:30;10.02;;;1.98;;
40252;SDS011;25972;51.854;4.534;2022-08-20T12:10:56;7.45;;;1.60;;
40252;SDS011;25972;51.854;4.534;2022-08-20T12:13:28;6.25;;;1.73;;
40252;SDS011;25972;51.854;4.534;2022-08-20T12:15:56;9.13;;;2.13;;
40252;SDS011;25972;51.854;4.534;2022-08-20T12:18:22;6.85;;;1.92;;
40252;SDS011;25972;51.854;4.534;2022-08-20T12:20:50;5.65;;;1.88;;
40252;SDS011;25972;51.854;4.534;2022-08-20T12:23:16;8.52;;;2.13;;
40252;SDS011;25972;51.854;4.534;2022-08-20T12:25:42;6.20;;;1.50;;
40252;SDS011;25972;51.854;4.534;2022-08-20T12:28:09;8.85;;;2.00;;
40252;SDS011;25972;51.854;4.534;2022-08-20T12:30:36;6.13;;;1.83;;
40252;SDS011;25972;51.854;4.534;2022-08-20T12:33:02;5.82;;;1.70;;
40252;SDS011;25972;51.854;4.534;2022-08-20T12:35:28;7.93;;;1.88;;
40252;SDS011;25972;51.854;4.534;2022-08-20T12:37:54;5.93;;;2.00;;
40252;SDS011;25972;51.854;4.534;2022-08-20T12:40:28;7.38;;;1.70;;
40252;SDS011;25972;51.854;4.534;2022-08-20T12:42:54;9.13;;;1.98;;
40252;SDS011;25972;51.854;4.534;2022-08-20T12:45:20;3.85;;;1.30;;
40252;SDS011;25972;51.854;4.534;2022-08-20T12:47:46;7.35;;;1.90;;
40252;SDS011;25972;51.854;4.534;2022-08-20T12:50:15;6.95;;;2.00;;
40252;SDS011;25972;51.854;4.534;2022-08-20T12:52:43;7.00;;;1.92;;
40252;SDS011;25972;51.854;4.534;2022-08-20T12:55:10;6.78;;;2.03;;
40252;SDS011;25972;51.854;4.534;2022-08-20T12:57:38;11.93;;;2.17;;
40252;SDS011;25972;51.854;4.534;2022-08-20T13:02:36;6.68;;;1.63;;
40252;SDS011;25972;51.854;4.534;2022-08-20T13:05:03;5.95;;;1.70;;
40252;SDS011;25972;51.854;4.534;2022-08-20T13:07:30;6.95;;;1.92;;
40252;SDS011;25972;51.854;4.534;2022-08-20T13:09:57;8.18;;;1.67;;
40252;SDS011;25972;51.854;4.534;2022-08-20T13:12:23;9.15;;;2.30;;
40252;SDS011;25972;51.854;4.534;2022-08-20T13:14:49;3.90;;;1.48;;
40252;SDS011;25972;51.854;4.534;2022-08-20T13:17:16;6.95;;;1.83;;
40252;SDS011;25972;51.854;4.534;2022-08-20T13:19:43;12.18;;;2.08;;
40252;SDS011;25972;51.854;4.534;2022-08-20T13:22:10;5.82;;;1.50;;
40252;SDS011;25972;51.854;4.534;2022-08-20T13:24:37;10.52;;;2.00;;
40252;SDS011;25972;51.854;4.534;2022-08-20T13:27:04;11.10;;;2.00;;
40252;SDS011;25972;51.854;4.534;2022-08-20T13:29:34;6.28;;;1.42;;
40252;SDS011;25972;51.854;4.534;2022-08-20T13:32:01;6.75;;;1.75;;
40252;SDS011;25972;51.854;4.534;2022-08-20T13:34:27;10.18;;;2.35;;
40252;SDS011;25972;51.854;4.534;2022-08-20T13:36:53;8.02;;;1.73;;
40252;SDS011;25972;51.854;4.534;2022-08-20T13:39:19;5.22;;;1.58;;
40252;SDS011;25972;51.854;4.534;2022-08-20T13:41:46;8.07;;;1.75;;
40252;SDS011;25972;51.854;4.534;2022-08-20T13:44:12;7.00;;;1.50;;
40252;SDS011;25972;51.854;4.534;2022-08-20T13:46:39;5.10;;;1.15;;
40252;SDS011;25972;51.854;4.534;2022-08-20T13:49:05;5.63;;;1.40;;
40252;SDS011;25972;51.854;4.534;2022-08-20T13:51:31;9.05;;;1.83;;
40252;SDS011;25972;51.854;4.534;2022-08-20T13:53:57;7.28;;;1.90;;
40252;SDS011;25972;51.854;4.534;2022-08-20T13:56:23;6.30;;;1.50;;
40252;SDS011;25972;51.854;4.534;2022-08-20T13:58:48;5.88;;;1.63;;
40252;SDS011;25972;51.854;4.534;2022-08-20T14:01:14;5.45;;;1.33;;
40252;SDS011;25972;51.854;4.534;2022-08-20T14:03:40;6.72;;;1.65;;
40252;SDS011;25972;51.854;4.534;2022-08-20T14:06:05;7.70;;;2.20;;
40252;SDS011;25972;51.854;4.534;2022-08-20T14:08:33;6.75;;;1.60;;
40252;SDS011;25972;51.854;4.534;2022-08-20T14:10:59;8.30;;;1.70;;
40252;SDS011;25972;51.854;4.534;2022-08-20T14:13:25;5.95;;;1.58;;
40252;SDS011;25972;51.854;4.534;2022-08-20T14:15:52;8.70;;;1.70;;
40252;SDS011;25972;51.854;4.534;2022-08-20T14:18:18;9.63;;;1.60;;
40252;SDS011;25972;51.854;4.534;2022-08-20T14:20:44;6.75;;;1.83;;
40252;SDS011;25972;51.854;4.534;2022-08-20T14:23:10;5.22;;;1.30;;
40252;SDS011;25972;51.854;4.534;2022-08-20T14:25:36;4.55;;;1.80;;
40252;SDS011;25972;51.854;4.534;2022-08-20T14:28:10;6.90;;;1.83;;
40252;SDS011;25972;51.854;4.534;2022-08-20T14:30:37;7.65;;;1.90;;
40252;SDS011;25972;51.854;4.534;2022-08-20T14:33:03;10.90;;;1.90;;
40252;SDS011;25972;51.854;4.534;2022-08-20T14:35:29;6.07;;;1.52;;
40252;SDS011;25972;51.854;4.534;2022-08-20T14:37:55;5.03;;;1.27;;
40252;SDS011;25972;51.854;4.534;2022-08-20T14:40:22;10.80;;;1.60;;
40252;SDS011;25972;51.854;4.534;2022-08-20T14:42:49;6.68;;;1.35;;
40252;SDS011;25972;51.854;4.534;2022-08-20T14:45:16;5.22;;;1.60;;
40252;SDS011;25972;51.854;4.534;2022-08-20T14:47:43;4.28;;;1.13;;
40252;SDS011;25972;51.854;4.534;2022-08-20T14:50:15;6.15;;;1.50;;
40252;SDS011;25972;51.854;4.534;2022-08-20T14:52:45;7.65;;;1.63;;
40252;SDS011;25972;51.854;4.534;2022-08-20T14:55:16;5.72;;;1.20;;
40252;SDS011;25972;51.854;4.534;2022-08-20T14:57:43;4.18;;;1.38;;